Fernwood, Idaho
Current Conditions -  °F | °C
As of 10:53 AM on Friday 31 Oct 2014 (Local Time) from KMLP Reporting Station
Scattered Clouds Scattered Clouds  
Wind Chill: 50°   Ceiling: Unl
Heat Index: 50°   Visibility: 10mi
Dew Point: 36°   Wind: 3mph
Humidity: 59%   Direction: NA
Pressure: 29.82"   Gusts: NA
Location:  47.11°N, 116.4°W
Report Text: KMLP 311753Z AUTO VRB03KT 10SM SCT110 10/02 A2982 RMK AO2 SLP035 T01000022 10106 20044 53002
Loading
Personal Weather Stations






























Interactive Weather Map
Tropical Storm Tracking
New forecast layout! Learn more

10-Day Weather Forecast

Advertisements
Track Severe Weather on mobile